Time;durP1;ratioP1;P1;durP2;ratioP2;P2;SDS_P1;SDS_P2;PMS_P1;PMS_P2;Temp;Humidity;BMP_temperature;BMP_pressure;BME280_temperature;BME280_humidity;BME280_pressure;Samples;Min_cycle;Max_cycle;Signal;HPM_P1;HPM_P2
2022/07/30 00:02:19;;;;;;;;;;;;;;;;;;5102097;28;19897;-89
2022/07/30 00:05:06;;;;;;;;;;;;;;;;;;5108587;28;19916;-91
2022/07/30 00:07:52;;;;;;;;;;;;;;;;;;5113129;28;19919;-89
2022/07/30 00:10:39;;;;;;;;;;;;;;;;;;5091281;28;19920;-90
2022/07/30 00:13:25;;;;;;;;;;;;;;;;;;5084776;28;19913;-89
2022/07/30 00:16:12;;;;;;;;;;;;;;;;;;5084318;28;19926;-89
2022/07/30 00:18:58;;;;;;;;;;;;;;;;;;5065758;28;19913;-83
2022/07/30 00:21:45;;;;;;;;;;;;;;;;;;5064189;28;19935;-84
2022/07/30 00:24:31;;;;;;;;;;;;;;;;;;5070300;28;19923;-87
2022/07/30 00:27:18;;;;;;;;;;;;;;;;;;5065071;28;19931;-87
2022/07/30 00:30:04;;;;;;;;;;;;;;;;;;5081985;28;19934;-87
2022/07/30 00:32:51;;;;;;;;;;;;;;;;;;5067440;28;19917;-85
2022/07/30 00:35:38;;;;;;;;;;;;;;;;;;5074579;28;19931;-85
2022/07/30 00:38:24;;;;;;;;;;;;;;;;;;5082611;28;19912;-84
2022/07/30 00:41:11;;;;;;;;;;;;;;;;;;5062039;28;19923;-85
2022/07/30 00:43:57;;;;;;;;;;;;;;;;;;5064124;28;20352;-86
2022/07/30 00:46:44;;;;;;;;;;;;;;;;;;5082425;28;19984;-85
2022/07/30 00:49:30;;;;;;;;;;;;;;;;;;5070441;28;19919;-85
2022/07/30 00:52:17;;;;;;;;;;;;;;;;;;5055166;28;19909;-84
2022/07/30 00:55:03;;;;;;;;;;;;;;;;;;5063267;28;19943;-86
2022/07/30 00:57:50;;;;;;;;;;;;;;;;;;5073504;28;19983;-85
2022/07/30 01:00:36;;;;;;;;;;;;;;;;;;5061989;28;19912;-87
2022/07/30 01:03:23;;;;;;;;;;;;;;;;;;5062317;28;20380;-83
2022/07/30 01:06:09;;;;;;;;;;;;;;;;;;5056259;28;20163;-82
2022/07/30 01:08:56;;;;;;;;;;;;;;;;;;5058250;28;19931;-83
2022/07/30 01:11:42;;;;;;;;;;;;;;;;;;5079842;28;19918;-82
2022/07/30 01:14:29;;;;;;;;;;;;;;;;;;5068164;28;19919;-81
2022/07/30 01:17:15;;;;;;;;;;;;;;;;;;5088429;28;19923;-84
2022/07/30 01:20:02;;;;;;;;;;;;;;;;;;5084076;28;19923;-83
2022/07/30 01:22:48;;;;;;;;;;;;;;;;;;5082789;28;19912;-82
2022/07/30 01:25:35;;;;;;;;;;;;;;;;;;5085320;28;19978;-82
2022/07/30 01:28:21;;;;;;;;;;;;;;;;;;5083995;28;19922;-82
2022/07/30 01:31:08;;;;;;;;;;;;;;;;;;5089023;28;19936;-82
2022/07/30 01:33:54;;;;;;;;;;;;;;;;;;5080570;28;19939;-81
2022/07/30 01:36:41;;;;;;;;;;;;;;;;;;5085977;28;19916;-81
2022/07/30 01:39:29;;;;;;;;;;;;;;;;;;5088292;28;19935;-82
2022/07/30 01:42:15;;;;;;;;;;;;;;;;;;5081088;28;19918;-81
2022/07/30 01:45:01;;;;;;;;;;;;;;;;;;5092502;28;19920;-81
2022/07/30 01:47:48;;;;;;;;;;;;;;;;;;5081688;28;19912;-82
2022/07/30 01:50:34;;;;;;;;;;;;;;;;;;5086359;28;19908;-83
2022/07/30 01:53:21;;;;;;;;;;;;;;;;;;5081163;28;19912;-82
2022/07/30 01:56:07;;;;;;;;;;;;;;;;;;5093207;28;19923;-82
2022/07/30 01:58:54;;;;;;;;;;;;;;;;;;5072327;28;19935;-81
2022/07/30 02:01:40;;;;;;;;;;;;;;;;;;5080261;28;20364;-81
2022/07/30 02:04:27;;;;;;;;;;;;;;;;;;5083143;28;19918;-81
2022/07/30 02:07:13;;;;;;;;;;;;;;;;;;5082436;28;19920;-81
2022/07/30 02:10:00;;;;;;;;;;;;;;;;;;5090176;28;19924;-81
2022/07/30 02:12:46;;;;;;;;;;;;;;;;;;5082005;28;20399;-81
2022/07/30 02:15:36;;;;;;;;;;;;;;;;;;5082801;28;19920;-80
2022/07/30 02:18:24;;;;;;;;;;;;;;;;;;5079253;28;19936;-83
2022/07/30 02:21:10;;;;;;;;;;;;;;;;;;5073850;28;19917;-82
2022/07/30 02:23:57;;;;;;;;;;;;;;;;;;5080628;28;19912;-81
2022/07/30 02:26:43;;;;;;;;;;;;;;;;;;5078141;28;19916;-82
2022/07/30 02:29:29;;;;;;;;;;;;;;;;;;5080356;28;19917;-84
2022/07/30 02:32:16;;;;;;;;;;;;;;;;;;5077763;28;19912;-84
2022/07/30 02:35:04;;;;;;;;;;;;;;;;;;5068602;28;19920;-85
2022/07/30 02:37:50;;;;;;;;;;;;;;;;;;5073236;28;19912;-84
2022/07/30 02:40:37;;;;;;;;;;;;;;;;;;5075844;28;19916;-83
2022/07/30 02:43:24;;;;;;;;;;;;;;;;;;5086674;28;19935;-82
2022/07/30 02:46:11;;;;;;;;;;;;;;;;;;5080589;28;19919;-82
2022/07/30 02:48:57;;;;;;;;;;;;;;;;;;5075850;28;19919;-83
2022/07/30 02:51:44;;;;;;;;;;;;;;;;;;5056474;28;20308;-85
2022/07/30 02:54:30;;;;;;;;;;;;;;;;;;5066991;28;19921;-82
2022/07/30 02:57:17;;;;;;;;;;;;;;;;;;5085256;28;19916;-84
2022/07/30 03:00:03;;;;;;;;;;;;;;;;;;5072880;28;19912;-84
2022/07/30 03:02:50;;;;;;;;;;;;;;;;;;5072483;28;20265;-82
2022/07/30 03:05:36;;;;;;;;;;;;;;;;;;5074017;28;19912;-81
2022/07/30 03:08:23;;;;;;;;;;;;;;;;;;5071580;28;19916;-83
2022/07/30 03:11:09;;;;;;;;;;;;;;;;;;5075209;28;19920;-82
2022/07/30 03:13:56;;;;;;;;;;;;;;;;;;5069804;28;19939;-81
2022/07/30 03:16:43;;;;;;;;;;;;;;;;;;5072080;28;19917;-83
2022/07/30 03:19:29;;;;;;;;;;;;;;;;;;5072978;28;19913;-81
2022/07/30 03:22:16;;;;;;;;;;;;;;;;;;5080130;28;19913;-80
2022/07/30 03:25:02;;;;;;;;;;;;;;;;;;5069028;28;19917;-81
2022/07/30 03:27:48;;;;;;;;;;;;;;;;;;5079451;28;20455;-81
2022/07/30 03:30:35;;;;;;;;;;;;;;;;;;5083329;28;19916;-83
2022/07/30 03:33:21;;;;;;;;;;;;;;;;;;5089761;28;20719;-80
2022/07/30 03:36:08;;;;;;;;;;;;;;;;;;5087110;28;19919;-87
2022/07/30 03:38:55;;;;;;;;;;;;;;;;;;5092044;28;19912;-88
2022/07/30 03:41:41;;;;;;;;;;;;;;;;;;5084299;28;20416;-90
2022/07/30 03:44:28;;;;;;;;;;;;;;;;;;5078514;28;19915;-90
2022/07/30 03:47:14;;;;;;;;;;;;;;;;;;5090817;28;19912;-88
2022/07/30 03:50:01;;;;;;;;;;;;;;;;;;5089707;28;19915;-85
2022/07/30 03:52:47;;;;;;;;;;;;;;;;;;5063430;28;19919;-84
2022/07/30 03:55:34;;;;;;;;;;;;;;;;;;5076727;28;20307;-83
2022/07/30 03:58:20;;;;;;;;;;;;;;;;;;5093165;27;19919;-83
2022/07/30 04:01:07;;;;;;;;;;;;;;;;;;5076082;28;20298;-83
2022/07/30 04:03:53;;;;;;;;;;;;;;;;;;5085156;28;19919;-83
2022/07/30 04:06:41;;;;;;;;;;;;;;;;;;5086491;28;19919;-83
2022/07/30 04:09:28;;;;;;;;;;;;;;;;;;5080974;28;20364;-87
2022/07/30 04:12:14;;;;;;;;;;;;;;;;;;5087585;28;20287;-88
2022/07/30 04:15:01;;;;;;;;;;;;;;;;;;5082419;28;20469;-88
2022/07/30 04:17:47;;;;;;;;;;;;;;;;;;5080109;28;19912;-88
2022/07/30 04:20:34;;;;;;;;;;;;;;;;;;5084306;28;19916;-88
2022/07/30 04:23:20;;;;;;;;;;;;;;;;;;5088399;28;19923;-88
2022/07/30 04:26:07;;;;;;;;;;;;;;;;;;5088286;28;20367;-88
2022/07/30 04:28:53;;;;;;;;;;;;;;;;;;5080875;28;19919;-87
2022/07/30 04:31:40;;;;;;;;;;;;;;;;;;5086363;28;19911;-88
2022/07/30 04:34:26;;;;;;;;;;;;;;;;;;5086212;28;19920;-87
2022/07/30 04:37:13;;;;;;;;;;;;;;;;;;5080693;28;19913;-88
2022/07/30 04:39:59;;;;;;;;;;;;;;;;;;5088913;28;19912;-86
2022/07/30 04:42:46;;;;;;;;;;;;;;;;;;5093903;28;19919;-81
2022/07/30 04:45:34;;;;;;;;;;;;;;;;;;5072605;28;19916;-80
2022/07/30 04:48:20;;;;;;;;;;;;;;;;;;5085141;28;19912;-80
2022/07/30 04:51:07;;;;;;;;;;;;;;;;;;5070575;28;20238;-81
2022/07/30 04:53:53;;;;;;;;;;;;;;;;;;5081329;28;19920;-80
2022/07/30 04:56:40;;;;;;;;;;;;;;;;;;5085376;28;19943;-81
2022/07/30 04:59:26;;;;;;;;;;;;;;;;;;5084102;28;19922;-81
2022/07/30 05:02:13;;;;;;;;;;;;;;;;;;5068355;28;19916;-81
2022/07/30 05:04:59;;;;;;;;;;;;;;;;;;5075905;28;19914;-81
2022/07/30 05:07:46;;;;;;;;;;;;;;;;;;5074271;28;19935;-79
2022/07/30 05:10:32;;;;;;;;;;;;;;;;;;5078815;28;19928;-80
2022/07/30 05:13:19;;;;;;;;;;;;;;;;;;5068786;28;19913;-79
2022/07/30 05:16:05;;;;;;;;;;;;;;;;;;5090904;28;20544;-79
2022/07/30 05:18:52;;;;;;;;;;;;;;;;;;5083453;28;19912;-79
2022/07/30 05:21:38;;;;;;;;;;;;;;;;;;5077054;28;19912;-80
2022/07/30 05:24:25;;;;;;;;;;;;;;;;;;5092605;28;20872;-80
2022/07/30 05:27:11;;;;;;;;;;;;;;;;;;5072759;28;19916;-80
2022/07/30 05:29:58;;;;;;;;;;;;;;;;;;5084591;28;19912;-81
2022/07/30 05:32:44;;;;;;;;;;;;;;;;;;5072727;28;19916;-82
2022/07/30 05:35:31;;;;;;;;;;;;;;;;;;5062047;28;20333;-83
2022/07/30 05:38:17;;;;;;;;;;;;;;;;;;5063980;28;19918;-82
2022/07/30 05:41:04;;;;;;;;;;;;;;;;;;5084109;28;19912;-82
2022/07/30 05:43:50;;;;;;;;;;;;;;;;;;5069424;28;19923;-83
2022/07/30 05:46:37;;;;;;;;;;;;;;;;;;5066456;28;19912;-81
2022/07/30 05:49:23;;;;;;;;;;;;;;;;;;5080409;28;19922;-81
2022/07/30 05:52:10;;;;;;;;;;;;;;;;;;5074882;28;19919;-82
2022/07/30 05:54:56;;;;;;;;;;;;;;;;;;5085325;28;19927;-81
2022/07/30 05:57:43;;;;;;;;;;;;;;;;;;5067711;28;20600;-83
2022/07/30 06:00:29;;;;;;;;;;;;;;;;;;5083994;28;19916;-83
2022/07/30 06:03:16;;;;;;;;;;;;;;;;;;5084670;28;19912;-82
2022/07/30 06:06:02;;;;;;;;;;;;;;;;;;5075486;28;19916;-82
2022/07/30 06:08:49;;;;;;;;;;;;;;;;;;5068988;28;20497;-81
2022/07/30 06:11:35;;;;;;;;;;;;;;;;;;5069902;28;19912;-81
2022/07/30 06:14:24;;;;;;;;;;;;;;;;;;5056943;28;20210;-80
2022/07/30 06:17:10;;;;;;;;;;;;;;;;;;5059679;28;19919;-80
2022/07/30 06:19:57;;;;;;;;;;;;;;;;;;5053810;28;19919;-80
2022/07/30 06:22:43;;;;;;;;;;;;;;;;;;5066406;28;20383;-81
2022/07/30 06:25:30;;;;;;;;;;;;;;;;;;5049231;28;20002;-81
2022/07/30 06:28:16;;;;;;;;;;;;;;;;;;5061282;28;19964;-82
2022/07/30 06:31:02;;;;;;;;;;;;;;;;;;5064768;28;19924;-82
2022/07/30 06:33:49;;;;;;;;;;;;;;;;;;5074977;28;19920;-81
2022/07/30 06:36:35;;;;;;;;;;;;;;;;;;5055896;28;19913;-79
2022/07/30 06:42:30;;;;;;;;;;;;;;;;;;5040826;28;19912;-81
2022/07/30 06:45:16;;;;;;;;;;;;;;;;;;5074690;28;19912;-81
2022/07/30 06:48:03;;;;;;;;;;;;;;;;;;5057417;28;19916;-81
2022/07/30 06:50:49;;;;;;;;;;;;;;;;;;5070234;28;19940;-82
2022/07/30 06:53:36;;;;;;;;;;;;;;;;;;5064505;28;20349;-82
2022/07/30 06:56:43;;;;;;;;;;;;;;;;;;5062300;28;19928;-81
2022/07/30 07:05:50;;;;;;;;;;;;;;;;;;5055858;28;19912;-80
2022/07/30 07:08:37;;;;;;;;;;;;;;;;;;5056328;28;19927;-80
2022/07/30 07:11:23;;;;;;;;;;;;;;;;;;5078368;28;19920;-80
2022/07/30 07:14:10;;;;;;;;;;;;;;;;;;5075611;28;19939;-82
2022/07/30 07:16:56;;;;;;;;;;;;;;;;;;5083420;28;19920;-81
2022/07/30 07:19:43;;;;;;;;;;;;;;;;;;5090752;28;20307;-81
2022/07/30 07:22:29;;;;;;;;;;;;;;;;;;5068801;28;19935;-86
2022/07/30 07:25:16;;;;;;;;;;;;;;;;;;5073836;28;19913;-81
2022/07/30 07:28:02;;;;;;;;;;;;;;;;;;5087671;28;20366;-81
2022/07/30 07:30:49;;;;;;;;;;;;;;;;;;5084940;28;20639;-79
2022/07/30 07:33:35;;;;;;;;;;;;;;;;;;5071316;28;19923;-81
2022/07/30 07:36:22;;;;;;;;;;;;;;;;;;5083307;28;19920;-79
2022/07/30 07:39:08;;;;;;;;;;;;;;;;;;5078886;28;19916;-78
2022/07/30 07:41:55;;;;;;;;;;;;;;;;;;5061667;28;19912;-82
2022/07/30 07:44:41;;;;;;;;;;;;;;;;;;5076175;28;20039;-81
2022/07/30 07:47:28;;;;;;;;;;;;;;;;;;5080693;28;19912;-83
2022/07/30 07:50:14;;;;;;;;;;;;;;;;;;5064245;28;19916;-86
2022/07/30 07:53:01;;;;;;;;;;;;;;;;;;5084036;28;19912;-83
2022/07/30 07:55:47;;;;;;;;;;;;;;;;;;5075657;28;19924;-81
2022/07/30 07:58:34;;;;;;;;;;;;;;;;;;5089091;27;19913;-88
2022/07/30 08:01:20;;;;;;;;;;;;;;;;;;5071707;28;19912;-84
2022/07/30 08:04:07;;;;;;;;;;;;;;;;;;5080252;28;20467;-84
2022/07/30 08:06:53;;;;;;;;;;;;;;;;;;5086151;28;19938;-81
2022/07/30 08:09:40;;;;;;;;;;;;;;;;;;5076861;28;20658;-88
2022/07/30 08:12:26;;;;;;;;;;;;;;;;;;5081881;28;19908;-86
2022/07/30 08:15:13;;;;;;;;;;;;;;;;;;5080235;28;19931;-81
2022/07/30 08:17:59;;;;;;;;;;;;;;;;;;5090887;28;19923;-89
2022/07/30 08:20:46;;;;;;;;;;;;;;;;;;5084810;28;20390;-86
2022/07/30 08:23:32;;;;;;;;;;;;;;;;;;5074475;28;19908;-88
2022/07/30 08:26:19;;;;;;;;;;;;;;;;;;5081680;28;19926;-87
2022/07/30 08:29:05;;;;;;;;;;;;;;;;;;5082485;28;19916;-87
2022/07/30 08:31:52;;;;;;;;;;;;;;;;;;5079809;28;19912;-89
2022/07/30 08:34:38;;;;;;;;;;;;;;;;;;5074229;28;20379;-87
2022/07/30 08:37:25;;;;;;;;;;;;;;;;;;5092431;28;19916;-91
2022/07/30 08:40:11;;;;;;;;;;;;;;;;;;5105017;28;20251;-90
2022/07/30 08:42:57;;;;;;;;;;;;;;;;;;5088860;28;19931;-88
2022/07/30 08:45:44;;;;;;;;;;;;;;;;;;5087184;28;19916;-88
2022/07/30 08:48:30;;;;;;;;;;;;;;;;;;5086476;28;19913;-87
2022/07/30 08:51:17;;;;;;;;;;;;;;;;;;5088757;28;19908;-87
2022/07/30 08:54:04;;;;;;;;;;;;;;;;;;5096654;28;19934;-84
2022/07/30 08:56:51;;;;;;;;;;;;;;;;;;5086198;28;19916;-84
2022/07/30 08:59:38;;;;;;;;;;;;;;;;;;5074692;28;19916;-86
2022/07/30 09:02:24;;;;;;;;;;;;;;;;;;5076557;28;19922;-85
2022/07/30 09:05:11;;;;;;;;;;;;;;;;;;5085590;28;19927;-84
2022/07/30 09:07:57;;;;;;;;;;;;;;;;;;5076628;28;20283;-85
2022/07/30 09:10:44;;;;;;;;;;;;;;;;;;5071811;28;19924;-86
2022/07/30 09:13:30;;;;;;;;;;;;;;;;;;5064719;28;19912;-85
2022/07/30 09:16:17;;;;;;;;;;;;;;;;;;5051017;28;19932;-80
2022/07/30 09:19:03;;;;;;;;;;;;;;;;;;5065546;28;19924;-85
2022/07/30 09:21:50;;;;;;;;;;;;;;;;;;5067956;28;20445;-87
2022/07/30 09:24:36;;;;;;;;;;;;;;;;;;5079137;28;19917;-85
2022/07/30 09:27:22;;;;;;;;;;;;;;;;;;5064572;28;19912;-84
2022/07/30 09:30:09;;;;;;;;;;;;;;;;;;5070998;28;19912;-85
2022/07/30 09:32:56;;;;;;;;;;;;;;;;;;5073578;28;19917;-85
2022/07/30 09:35:42;;;;;;;;;;;;;;;;;;5090465;28;20011;-85
2022/07/30 09:38:30;;;;;;;;;;;;;;;;;;5074550;28;19920;-87
2022/07/30 09:41:17;;;;;;;;;;;;;;;;;;5079710;28;19920;-90
2022/07/30 09:44:03;;;;;;;;;;;;;;;;;;5075194;28;19923;-81
2022/07/30 09:46:50;;;;;;;;;;;;;;;;;;5062782;28;19919;-80
2022/07/30 09:49:37;;;;;;;;;;;;;;;;;;5065469;28;20193;-82
2022/07/30 09:52:23;;;;;;;;;;;;;;;;;;5064065;28;19924;-80
2022/07/30 09:55:10;;;;;;;;;;;;;;;;;;5061042;28;19931;-81
2022/07/30 09:57:56;;;;;;;;;;;;;;;;;;5069408;28;20805;-91
2022/07/30 10:00:43;;;;;;;;;;;;;;;;;;5052387;28;19966;-90
2022/07/30 10:03:29;;;;;;;;;;;;;;;;;;5062279;28;19931;-85
2022/07/30 10:06:16;;;;;;;;;;;;;;;;;;5068726;28;19912;-88
2022/07/30 10:09:02;;;;;;;;;;;;;;;;;;5071958;28;19931;-85
2022/07/30 10:11:49;;;;;;;;;;;;;;;;;;5076688;28;19923;-84
2022/07/30 10:14:35;;;;;;;;;;;;;;;;;;5070637;28;19927;-87
2022/07/30 10:17:22;;;;;;;;;;;;;;;;;;5068038;28;19913;-87
2022/07/30 10:20:08;;;;;;;;;;;;;;;;;;5083747;28;19913;-84
2022/07/30 10:22:55;;;;;;;;;;;;;;;;;;5077442;28;19922;-86
2022/07/30 10:25:41;;;;;;;;;;;;;;;;;;5082937;28;19918;-79
2022/07/30 10:28:28;;;;;;;;;;;;;;;;;;5077369;28;19923;-86
2022/07/30 10:31:14;;;;;;;;;;;;;;;;;;5085875;28;19912;-80
2022/07/30 10:34:01;;;;;;;;;;;;;;;;;;5081718;28;20344;-76
2022/07/30 10:36:47;;;;;;;;;;;;;;;;;;5090449;28;19920;-76
2022/07/30 10:39:34;;;;;;;;;;;;;;;;;;5083310;28;19916;-90
2022/07/30 10:42:20;;;;;;;;;;;;;;;;;;5084561;28;19927;-91
2022/07/30 10:45:07;;;;;;;;;;;;;;;;;;5064979;28;19927;-85
2022/07/30 10:47:53;;;;;;;;;;;;;;;;;;5068656;28;19915;-86
2022/07/30 10:50:39;;;;;;;;;;;;;;;;;;5068382;28;19921;-83
2022/07/30 10:53:26;;;;;;;;;;;;;;;;;;5076606;28;19924;-85
2022/07/30 10:56:13;;;;;;;;;;;;;;;;;;5074076;28;19920;-87
2022/07/30 10:58:59;;;;;;;;;;;;;;;;;;5074817;28;19916;-82
2022/07/30 11:01:46;;;;;;;;;;;;;;;;;;5075235;28;19912;-83
2022/07/30 11:04:33;;;;;;;;;;;;;;;;;;5078821;28;19912;-81
2022/07/30 11:07:19;;;;;;;;;;;;;;;;;;5081150;28;19918;-84
2022/07/30 11:10:05;;;;;;;;;;;;;;;;;;5076982;28;20303;-81
2022/07/30 11:12:52;;;;;;;;;;;;;;;;;;5077201;28;19912;-80
2022/07/30 11:15:38;;;;;;;;;;;;;;;;;;5076976;28;20467;-82
2022/07/30 11:18:25;;;;;;;;;;;;;;;;;;5066886;28;19919;-83
2022/07/30 11:21:11;;;;;;;;;;;;;;;;;;5079742;28;20562;-85
2022/07/30 11:23:58;;;;;;;;;;;;;;;;;;5086965;28;19916;-95
2022/07/30 11:26:45;;;;;;;;;;;;;;;;;;5089610;28;19913;-91
2022/07/30 11:29:31;;;;;;;;;;;;;;;;;;5090499;28;19923;-95
2022/07/30 11:32:19;;;;;;;;;;;;;;;;;;5109185;28;19916;-96
2022/07/30 11:35:05;;;;;;;;;;;;;;;;;;5081587;28;19920;-94
2022/07/30 11:37:52;;;;;;;;;;;;;;;;;;5111462;28;19912;-96
2022/07/30 11:40:41;;;;;;;;;;;;;;;;;;5093154;28;19908;-96
2022/07/30 11:43:35;;;;;;;;;;;;;;;;;;5107712;28;19915;-95
2022/07/30 11:46:22;;;;;;;;;;;;;;;;;;5091141;28;20381;-95
2022/07/30 11:49:08;;;;;;;;;;;;;;;;;;5091799;28;19916;-84
2022/07/30 11:51:54;;;;;;;;;;;;;;;;;;5081377;28;20026;-83
2022/07/30 11:54:41;;;;;;;;;;;;;;;;;;5084741;28;19924;-83
2022/07/30 11:57:27;;;;;;;;;;;;;;;;;;5073667;28;19912;-84
2022/07/30 12:00:16;;;;;;;;;;;;;;;;;;5077493;28;19943;-83
2022/07/30 12:03:03;;;;;;;;;;;;;;;;;;5082653;28;19912;-83
2022/07/30 12:05:49;;;;;;;;;;;;;;;;;;5086281;28;19932;-83
2022/07/30 12:08:36;;;;;;;;;;;;;;;;;;5077139;28;19948;-83
2022/07/30 12:11:23;;;;;;;;;;;;;;;;;;5075821;28;19920;-83
2022/07/30 12:14:09;;;;;;;;;;;;;;;;;;5084485;28;19913;-85
2022/07/30 12:16:58;;;;;;;;;;;;;;;;;;5091821;28;19927;-86
2022/07/30 12:19:44;;;;;;;;;;;;;;;;;;5082888;28;19916;-94
2022/07/30 12:22:31;;;;;;;;;;;;;;;;;;5089472;28;19909;-96
2022/07/30 12:25:17;;;;;;;;;;;;;;;;;;5070815;28;19912;-92
2022/07/30 12:28:04;;;;;;;;;;;;;;;;;;5099685;28;19912;-91
2022/07/30 12:30:50;;;;;;;;;;;;;;;;;;5089256;28;19915;-81
2022/07/30 12:33:37;;;;;;;;;;;;;;;;;;5081361;28;20018;-95
2022/07/30 12:36:23;;;;;;;;;;;;;;;;;;5075457;28;19924;-90
2022/07/30 12:39:10;;;;;;;;;;;;;;;;;;5059526;28;19927;-93
2022/07/30 12:41:57;;;;;;;;;;;;;;;;;;5082790;28;19919;-94
2022/07/30 12:44:43;;;;;;;;;;;;;;;;;;5087823;28;20284;-85
2022/07/30 12:47:30;;;;;;;;;;;;;;;;;;5091046;28;19954;-87
2022/07/30 12:50:16;;;;;;;;;;;;;;;;;;5066166;28;19966;-84
2022/07/30 12:53:03;;;;;;;;;;;;;;;;;;5067023;28;19912;-87
2022/07/30 12:55:49;;;;;;;;;;;;;;;;;;5076745;28;19924;-88
2022/07/30 12:58:37;;;;;;;;;;;;;;;;;;5066324;28;19913;-86
2022/07/30 13:01:23;;;;;;;;;;;;;;;;;;5078031;28;19911;-86
2022/07/30 13:04:10;;;;;;;;;;;;;;;;;;5094239;28;19912;-87
2022/07/30 13:06:56;;;;;;;;;;;;;;;;;;5078216;28;19923;-88
2022/07/30 13:09:42;;;;;;;;;;;;;;;;;;5084651;28;19943;-87
2022/07/30 13:12:29;;;;;;;;;;;;;;;;;;5071308;28;19912;-87
2022/07/30 13:15:15;;;;;;;;;;;;;;;;;;5065488;28;20410;-87
2022/07/30 13:18:02;;;;;;;;;;;;;;;;;;5077351;28;19908;-89
2022/07/30 13:20:48;;;;;;;;;;;;;;;;;;5083002;28;19912;-88
2022/07/30 13:23:35;;;;;;;;;;;;;;;;;;5085707;28;19912;-88
2022/07/30 13:26:22;;;;;;;;;;;;;;;;;;5083049;28;19913;-87
2022/07/30 13:29:09;;;;;;;;;;;;;;;;;;5086158;28;19918;-87
2022/07/30 13:31:55;;;;;;;;;;;;;;;;;;5089655;28;19909;-88
2022/07/30 13:34:42;;;;;;;;;;;;;;;;;;5090862;28;20303;-87
2022/07/30 13:37:29;;;;;;;;;;;;;;;;;;5102698;28;19916;-86
2022/07/30 13:40:15;;;;;;;;;;;;;;;;;;5105557;28;19912;-86
2022/07/30 13:43:02;;;;;;;;;;;;;;;;;;5087897;28;19912;-87
2022/07/30 13:45:48;;;;;;;;;;;;;;;;;;5109445;28;19908;-86
2022/07/30 13:48:35;;;;;;;;;;;;;;;;;;5101328;28;19931;-86
2022/07/30 13:51:21;;;;;;;;;;;;;;;;;;5093117;28;19918;-86
2022/07/30 13:54:07;;;;;;;;;;;;;;;;;;5099578;28;19909;-87
2022/07/30 13:56:54;;;;;;;;;;;;;;;;;;5110972;28;19924;-88
2022/07/30 13:59:40;;;;;;;;;;;;;;;;;;5108582;28;20244;-88
2022/07/30 14:02:27;;;;;;;;;;;;;;;;;;5090026;28;19912;-87
2022/07/30 14:05:13;;;;;;;;;;;;;;;;;;5098048;28;19912;-88
2022/07/30 14:08:00;;;;;;;;;;;;;;;;;;5106623;28;19909;-88
2022/07/30 14:10:46;;;;;;;;;;;;;;;;;;5101985;28;19924;-87
2022/07/30 14:13:33;;;;;;;;;;;;;;;;;;5104867;28;19915;-89
2022/07/30 14:16:19;;;;;;;;;;;;;;;;;;5106154;28;19916;-87
2022/07/30 14:19:06;;;;;;;;;;;;;;;;;;5117724;28;19912;-86
2022/07/30 14:21:52;;;;;;;;;;;;;;;;;;5100864;28;19980;-86
2022/07/30 14:24:39;;;;;;;;;;;;;;;;;;5102284;28;19920;-88
2022/07/30 14:27:25;;;;;;;;;;;;;;;;;;5106551;28;19908;-86
2022/07/30 14:30:12;;;;;;;;;;;;;;;;;;5092837;28;19916;-86
2022/07/30 14:32:58;;;;;;;;;;;;;;;;;;5109638;28;19922;-87
2022/07/30 14:35:45;;;;;;;;;;;;;;;;;;5096813;28;19924;-85
2022/07/30 14:38:31;;;;;;;;;;;;;;;;;;5094225;28;19912;-88
2022/07/30 14:41:17;;;;;;;;;;;;;;;;;;5081566;28;20287;-87
2022/07/30 14:44:04;;;;;;;;;;;;;;;;;;5086181;28;19916;-86
2022/07/30 14:46:50;;;;;;;;;;;;;;;;;;5092766;28;20643;-87
2022/07/30 14:49:37;;;;;;;;;;;;;;;;;;5083591;28;19912;-86
2022/07/30 14:52:23;;;;;;;;;;;;;;;;;;5069780;28;19927;-86
2022/07/30 14:55:10;;;;;;;;;;;;;;;;;;5093455;28;20050;-86
2022/07/30 14:57:56;;;;;;;;;;;;;;;;;;5090191;28;20289;-87
2022/07/30 15:00:43;;;;;;;;;;;;;;;;;;5078394;28;19912;-88
2022/07/30 15:03:29;;;;;;;;;;;;;;;;;;5075816;28;19912;-86
2022/07/30 15:06:16;;;;;;;;;;;;;;;;;;5072997;28;19912;-87
2022/07/30 15:09:02;;;;;;;;;;;;;;;;;;5083717;28;19920;-86
2022/07/30 15:11:49;;;;;;;;;;;;;;;;;;5080115;28;19922;-86
2022/07/30 15:14:35;;;;;;;;;;;;;;;;;;5064813;28;19963;-87
2022/07/30 15:17:22;;;;;;;;;;;;;;;;;;5081959;28;19930;-87
2022/07/30 15:20:09;;;;;;;;;;;;;;;;;;5069560;28;19920;-86
2022/07/30 15:22:55;;;;;;;;;;;;;;;;;;5079830;28;19918;-86
2022/07/30 15:25:42;;;;;;;;;;;;;;;;;;5073647;28;20424;-86
2022/07/30 15:28:28;;;;;;;;;;;;;;;;;;5081154;28;19919;-88
2022/07/30 15:31:15;;;;;;;;;;;;;;;;;;5090143;28;19917;-86
2022/07/30 15:34:02;;;;;;;;;;;;;;;;;;5077576;28;19912;-86
2022/07/30 15:36:48;;;;;;;;;;;;;;;;;;5067439;28;19931;-86
2022/07/30 15:39:35;;;;;;;;;;;;;;;;;;5080957;28;19912;-86
2022/07/30 15:42:21;;;;;;;;;;;;;;;;;;5089307;28;20378;-84
2022/07/30 15:45:08;;;;;;;;;;;;;;;;;;5086574;28;19919;-86
2022/07/30 15:47:54;;;;;;;;;;;;;;;;;;5069104;28;20410;-85
2022/07/30 15:50:41;;;;;;;;;;;;;;;;;;5077327;28;19913;-81
2022/07/30 15:53:27;;;;;;;;;;;;;;;;;;5078490;28;19920;-80
2022/07/30 15:56:14;;;;;;;;;;;;;;;;;;5072537;28;19920;-77
2022/07/30 15:59:01;;;;;;;;;;;;;;;;;;5061989;28;19956;-82
2022/07/30 16:01:47;;;;;;;;;;;;;;;;;;5081829;28;19923;-82
2022/07/30 16:04:34;;;;;;;;;;;;;;;;;;5081004;28;19912;-83
2022/07/30 16:07:20;;;;;;;;;;;;;;;;;;5078144;28;19935;-82
2022/07/30 16:10:08;;;;;;;;;;;;;;;;;;5078104;28;19924;-81
2022/07/30 16:12:54;;;;;;;;;;;;;;;;;;5083574;28;19916;-86
2022/07/30 16:15:41;;;;;;;;;;;;;;;;;;5085024;28;19920;-85
2022/07/30 16:18:27;;;;;;;;;;;;;;;;;;5080917;28;19923;-87
2022/07/30 16:21:14;;;;;;;;;;;;;;;;;;5080386;28;19912;-86
2022/07/30 16:24:00;;;;;;;;;;;;;;;;;;5091160;28;19912;-85
2022/07/30 16:26:47;;;;;;;;;;;;;;;;;;5071230;28;19918;-84
2022/07/30 16:29:33;;;;;;;;;;;;;;;;;;5079392;28;19916;-86
2022/07/30 16:32:20;;;;;;;;;;;;;;;;;;5075491;28;19912;-85
2022/07/30 16:35:06;;;;;;;;;;;;;;;;;;5085957;28;19919;-86
2022/07/30 16:37:56;;;;;;;;;;;;;;;;;;5062481;28;19922;-85
2022/07/30 16:40:42;;;;;;;;;;;;;;;;;;5084768;28;19912;-85
2022/07/30 16:43:30;;;;;;;;;;;;;;;;;;5081816;28;20959;-84
2022/07/30 16:46:17;;;;;;;;;;;;;;;;;;5088521;28;19912;-85
2022/07/30 16:49:03;;;;;;;;;;;;;;;;;;5082115;28;19923;-87
2022/07/30 16:51:50;;;;;;;;;;;;;;;;;;5080653;28;19916;-78
2022/07/30 16:54:36;;;;;;;;;;;;;;;;;;5075014;28;19912;-78
2022/07/30 16:57:23;;;;;;;;;;;;;;;;;;5073306;28;19920;-80
2022/07/30 17:00:10;;;;;;;;;;;;;;;;;;5064480;28;20415;-78
2022/07/30 17:02:57;;;;;;;;;;;;;;;;;;5072730;28;19931;-78
2022/07/30 17:05:43;;;;;;;;;;;;;;;;;;5074063;28;20368;-80
2022/07/30 17:08:30;;;;;;;;;;;;;;;;;;5076191;28;19908;-79
2022/07/30 17:11:16;;;;;;;;;;;;;;;;;;5073141;28;19920;-79
2022/07/30 17:14:03;;;;;;;;;;;;;;;;;;5069874;28;20422;-77
2022/07/30 17:16:49;;;;;;;;;;;;;;;;;;5073153;28;19921;-82
2022/07/30 17:19:36;;;;;;;;;;;;;;;;;;5067580;28;20405;-82
2022/07/30 17:22:22;;;;;;;;;;;;;;;;;;5075261;28;19912;-86
2022/07/30 17:25:09;;;;;;;;;;;;;;;;;;5061000;28;19922;-85
2022/07/30 17:27:55;;;;;;;;;;;;;;;;;;5074317;28;19916;-84
2022/07/30 17:30:42;;;;;;;;;;;;;;;;;;5084832;28;19916;-84
2022/07/30 17:33:28;;;;;;;;;;;;;;;;;;5073078;28;19919;-83
2022/07/30 17:36:15;;;;;;;;;;;;;;;;;;5073712;28;19931;-84
2022/07/30 17:39:01;;;;;;;;;;;;;;;;;;5070445;28;19916;-84
2022/07/30 17:41:48;;;;;;;;;;;;;;;;;;5083309;28;19919;-84
2022/07/30 17:44:34;;;;;;;;;;;;;;;;;;5074375;28;20303;-84
2022/07/30 17:47:21;;;;;;;;;;;;;;;;;;5072837;28;20123;-84
2022/07/30 17:50:07;;;;;;;;;;;;;;;;;;5084334;28;19918;-85
2022/07/30 17:52:54;;;;;;;;;;;;;;;;;;5059738;28;20416;-83
2022/07/30 17:55:40;;;;;;;;;;;;;;;;;;5081335;28;19932;-85
2022/07/30 17:58:27;;;;;;;;;;;;;;;;;;5081948;28;20122;-85
2022/07/30 18:01:13;;;;;;;;;;;;;;;;;;5070258;28;19919;-85
2022/07/30 18:04:00;;;;;;;;;;;;;;;;;;5083268;28;19912;-85
2022/07/30 18:06:48;;;;;;;;;;;;;;;;;;5077231;28;19912;-85
2022/07/30 18:09:35;;;;;;;;;;;;;;;;;;5085155;28;19923;-86
2022/07/30 18:12:21;;;;;;;;;;;;;;;;;;5071944;28;19931;-84
2022/07/30 18:15:10;;;;;;;;;;;;;;;;;;5091902;27;19912;-84
2022/07/30 18:17:57;;;;;;;;;;;;;;;;;;5069797;28;19912;-86
2022/07/30 18:20:44;;;;;;;;;;;;;;;;;;5082327;28;19912;-86
2022/07/30 18:23:30;;;;;;;;;;;;;;;;;;5078440;28;19912;-84
2022/07/30 18:26:17;;;;;;;;;;;;;;;;;;5087895;28;19912;-84
2022/07/30 18:29:03;;;;;;;;;;;;;;;;;;5096983;28;19916;-84
2022/07/30 18:31:50;;;;;;;;;;;;;;;;;;5083668;28;19919;-84
2022/07/30 18:34:36;;;;;;;;;;;;;;;;;;5061633;28;19912;-85
2022/07/30 18:37:23;;;;;;;;;;;;;;;;;;5081634;28;19947;-84
2022/07/30 18:40:09;;;;;;;;;;;;;;;;;;5077137;28;19912;-86
2022/07/30 18:42:56;;;;;;;;;;;;;;;;;;5084840;28;19917;-84
2022/07/30 18:45:43;;;;;;;;;;;;;;;;;;5083914;28;19923;-84
2022/07/30 18:48:30;;;;;;;;;;;;;;;;;;5067035;28;19918;-83
2022/07/30 18:51:17;;;;;;;;;;;;;;;;;;5080845;28;19911;-84
2022/07/30 18:54:04;;;;;;;;;;;;;;;;;;5078861;28;19913;-85
2022/07/30 18:56:50;;;;;;;;;;;;;;;;;;5080835;28;20401;-85
2022/07/30 18:59:36;;;;;;;;;;;;;;;;;;5073094;28;19923;-84
2022/07/30 19:02:24;;;;;;;;;;;;;;;;;;5088654;28;19912;-83
2022/07/30 19:05:10;;;;;;;;;;;;;;;;;;5085551;28;19932;-84
2022/07/30 19:07:57;;;;;;;;;;;;;;;;;;5091769;28;19916;-83